Time;durP1;ratioP1;P1;durP2;ratioP2;P2;SDS_P1;SDS_P2;PMS_P1;PMS_P2;Temp;Humidity;BMP_temperature;BMP_pressure;BME280_temperature;BME280_humidity;BME280_pressure;Samples;Min_cycle;Max_cycle;Signal;HPM_P1;HPM_P2
2023/09/07 00:00:35;;;;;;;6.28;5.32;;;17.30;1.00;;;;;;4978197;28;20184;-77
2023/09/07 00:03:01;;;;;;;5.63;5.13;;;17.50;1.00;;;;;;4977820;28;20300;-80
2023/09/07 00:05:27;;;;;;;6.05;5.40;;;17.50;1.00;;;;;;4978464;28;20201;-78
2023/09/07 00:07:53;;;;;;;7.40;5.47;;;17.50;1.00;;;;;;4978515;28;20184;-79
2023/09/07 00:10:18;;;;;;;7.72;5.53;;;17.50;1.00;;;;;;4978033;28;20181;-78
2023/09/07 00:12:44;;;;;;;5.68;5.18;;;17.40;1.00;;;;;;4978205;28;20585;-80
2023/09/07 00:15:10;;;;;;;5.30;4.90;;;17.40;1.00;;;;;;4978426;28;20199;-78
2023/09/07 00:17:36;;;;;;;5.85;5.35;;;17.40;1.00;;;;;;4977704;28;20683;-80
2023/09/07 00:20:14;;;;;;;7.35;6.00;;;17.30;1.00;;;;;;4978245;28;20189;-80
2023/09/07 00:22:39;;;;;;;6.47;5.65;;;17.40;1.00;;;;;;4977591;28;20317;-79
2023/09/07 00:25:06;;;;;;;6.40;5.80;;;17.30;1.00;;;;;;4960572;28;20270;-80
2023/09/07 00:27:33;;;;;;;5.90;5.40;;;17.30;1.00;;;;;;4977618;28;20169;-80
2023/09/07 00:29:59;;;;;;;7.10;5.63;;;17.20;1.00;;;;;;4960757;28;20205;-80
2023/09/07 00:32:24;;;;;;;6.50;5.72;;;17.10;1.00;;;;;;4977683;28;20201;-77
2023/09/07 00:34:50;;;;;;;5.65;5.15;;;17.20;1.00;;;;;;4978373;28;20249;-80
2023/09/07 00:37:15;;;;;;;6.07;5.53;;;17.60;1.00;;;;;;4977533;28;20199;-79
2023/09/07 00:39:41;;;;;;;5.75;5.25;;;17.20;1.00;;;;;;4977575;28;20193;-79
2023/09/07 00:42:07;;;;;;;6.20;5.57;;;17.20;1.00;;;;;;4976928;28;20189;-78
2023/09/07 00:44:32;;;;;;;7.18;5.97;;;17.20;1.00;;;;;;4977349;28;20209;-79
2023/09/07 00:46:58;;;;;;;6.57;5.90;;;17.20;1.00;;;;;;4977173;28;20185;-79
2023/09/07 00:49:25;;;;;;;6.63;6.03;;;17.10;1.00;;;;;;4977810;28;20328;-79
2023/09/07 00:51:51;;;;;;;7.68;6.50;;;17.40;1.00;;;;;;4977753;28;20185;-79
2023/09/07 00:54:18;;;;;;;5.97;5.47;;;17.10;1.00;;;;;;4977014;28;20236;-79
2023/09/07 00:56:44;;;;;;;6.25;5.65;;;17.10;1.00;;;;;;4976845;28;20638;-80
2023/09/07 00:59:11;;;;;;;6.60;6.00;;;17.10;1.00;;;;;;4977081;28;20473;-80
2023/09/07 01:01:37;;;;;;;6.47;5.88;;;17.20;1.00;;;;;;4977114;28;20192;-79
2023/09/07 01:04:03;;;;;;;6.32;5.82;;;17.10;1.00;;;;;;4977027;28;20205;-79
2023/09/07 01:06:50;;;;;;;6.32;5.82;;;17.10;1.00;;;;;;4960148;28;20613;-78
2023/09/07 01:09:26;;;;;;;7.10;6.50;;;17.10;1.00;;;;;;4976914;28;20250;-77
2023/09/07 01:11:52;;;;;;;7.50;6.80;;;17.10;1.00;;;;;;4976734;28;20645;-80
2023/09/07 01:14:18;;;;;;;6.55;5.82;;;17.10;1.00;;;;;;4976605;28;20229;-80
2023/09/07 01:16:44;;;;;;;6.90;6.22;;;17.10;1.00;;;;;;4960033;28;20193;-80
2023/09/07 01:19:11;;;;;;;7.07;6.47;;;16.90;1.00;;;;;;4977490;28;20191;-80
2023/09/07 01:21:38;;;;;;;7.10;6.45;;;17.00;1.00;;;;;;4976450;28;20269;-80
2023/09/07 01:24:07;;;;;;;7.97;6.72;;;17.00;1.00;;;;;;4977174;28;20252;-78
2023/09/07 01:26:34;;;;;;;7.40;6.70;;;17.00;1.00;;;;;;4977583;28;20253;-78
2023/09/07 01:29:01;;;;;;;6.82;6.22;;;17.00;1.00;;;;;;4977394;28;20608;-79
2023/09/07 01:31:26;;;;;;;7.60;6.90;;;16.90;1.00;;;;;;4959897;28;20241;-79
2023/09/07 01:33:52;;;;;;;8.00;6.25;;;16.90;1.00;;;;;;4960173;28;20227;-80
2023/09/07 01:36:17;;;;;;;7.30;6.70;;;16.80;1.00;;;;;;4977920;28;20177;-80
2023/09/07 01:38:43;;;;;;;7.03;6.43;;;16.80;1.00;;;;;;4977023;28;20193;-77
2023/09/07 01:41:08;;;;;;;7.40;6.70;;;16.80;1.00;;;;;;4977157;28;20193;-79
2023/09/07 01:43:35;;;;;;;7.43;6.72;;;16.80;1.00;;;;;;4959265;28;20216;-80
2023/09/07 01:46:01;;;;;;;7.72;7.05;;;16.80;1.00;;;;;;4960455;28;20235;-77
2023/09/07 01:48:26;;;;;;;7.15;6.43;;;16.80;1.00;;;;;;4960435;28;20641;-80
2023/09/07 01:50:53;;;;;;;7.40;6.65;;;16.70;1.00;;;;;;4977585;28;20177;-79
2023/09/07 01:53:19;;;;;;;6.65;6.07;;;16.80;1.00;;;;;;4977430;28;20220;-80
2023/09/07 01:55:45;;;;;;;7.43;6.72;;;16.80;1.00;;;;;;4958865;28;20571;-77
2023/09/07 01:58:10;;;;;;;7.53;6.82;;;16.80;1.00;;;;;;4960165;28;20272;-80
2023/09/07 02:00:37;;;;;;;7.28;6.63;;;16.70;1.00;;;;;;4976891;28;20252;-80
2023/09/07 02:03:04;;;;;;;7.20;6.53;;;16.70;1.00;;;;;;4976849;28;20207;-78
2023/09/07 02:05:29;;;;;;;7.00;6.30;;;16.70;1.00;;;;;;4959242;28;20450;-80
2023/09/07 02:07:55;;;;;;;8.85;6.85;;;16.80;1.00;;;;;;4975881;28;20177;-79
2023/09/07 02:10:20;;;;;;;7.35;6.65;;;16.60;1.00;;;;;;4957117;28;20537;-77
2023/09/07 02:12:46;;;;;;;7.68;6.97;;;16.80;1.00;;;;;;4971951;28;20211;-79
2023/09/07 02:15:12;;;;;;;7.57;6.78;;;16.70;1.00;;;;;;4969967;28;20177;-79
2023/09/07 02:17:37;;;;;;;7.68;6.97;;;16.60;1.00;;;;;;4974193;28;20197;-80
2023/09/07 02:20:10;;;;;;;9.25;7.05;;;16.70;1.00;;;;;;4976583;28;20216;-78
2023/09/07 02:22:36;;;;;;;7.85;6.97;;;16.60;1.00;;;;;;4959790;28;20208;-80
2023/09/07 02:25:02;;;;;;;7.30;6.60;;;16.60;1.00;;;;;;4976996;28;20248;-79
2023/09/07 02:27:28;;;;;;;7.75;7.00;;;16.60;1.00;;;;;;4977548;28;20219;-80
2023/09/07 02:29:53;;;;;;;8.75;7.47;;;16.50;1.00;;;;;;4977510;28;20741;-80
2023/09/07 02:32:19;;;;;;;8.85;6.80;;;16.50;1.00;;;;;;4959417;28;20760;-80
2023/09/07 02:34:45;;;;;;;7.72;7.00;;;16.80;1.00;;;;;;4978805;28;20276;-79
2023/09/07 02:37:10;;;;;;;7.32;6.55;;;16.50;1.00;;;;;;4981240;28;20189;-79
2023/09/07 02:39:36;;;;;;;7.43;6.63;;;16.50;1.00;;;;;;4981047;28;20268;-78
2023/09/07 02:42:01;;;;;;;7.03;6.43;;;16.60;1.00;;;;;;4980396;28;20236;-77
2023/09/07 02:44:27;;;;;;;7.70;7.03;;;16.50;1.00;;;;;;4980439;28;20236;-80
2023/09/07 02:46:52;;;;;;;6.80;6.20;;;16.50;1.00;;;;;;4963015;28;20669;-79
2023/09/07 02:49:18;;;;;;;7.28;6.63;;;16.40;1.00;;;;;;4980635;28;20189;-80
2023/09/07 02:51:44;;;;;;;7.88;6.47;;;16.30;1.00;;;;;;4980262;28;20185;-79
2023/09/07 02:54:10;;;;;;;7.07;6.47;;;16.40;1.00;;;;;;4979535;28;20246;-79
2023/09/07 02:56:36;;;;;;;7.50;6.70;;;16.40;1.00;;;;;;4979903;28;20192;-80
2023/09/07 02:59:02;;;;;;;7.72;7.07;;;16.30;1.00;;;;;;4980380;28;20181;-80
2023/09/07 03:01:28;;;;;;;6.63;5.95;;;16.30;1.00;;;;;;4980465;28;20730;-81
2023/09/07 03:03:54;;;;;;;7.10;6.40;;;16.50;1.00;;;;;;4979613;28;20209;-80
2023/09/07 03:06:20;;;;;;;7.22;6.53;;;16.30;1.00;;;;;;4962542;28;20236;-78
2023/09/07 03:08:45;;;;;;;7.88;7.18;;;16.40;1.00;;;;;;4979778;28;20180;-78
2023/09/07 03:11:11;;;;;;;7.03;6.40;;;16.30;1.00;;;;;;4962468;28;20645;-78
2023/09/07 03:13:37;;;;;;;7.90;7.20;;;16.30;1.00;;;;;;4978279;28;20445;-80
2023/09/07 03:16:03;;;;;;;7.90;6.70;;;16.30;1.00;;;;;;4979760;28;20241;-78
2023/09/07 03:18:29;;;;;;;7.13;6.53;;;16.30;1.00;;;;;;4963000;28;20184;-80
2023/09/07 03:20:57;;;;;;;7.63;6.53;;;16.20;1.00;;;;;;4980067;28;20661;-81
2023/09/07 03:23:23;;;;;;;6.97;6.28;;;16.20;1.00;;;;;;4979053;28;20224;-79
2023/09/07 03:25:49;;;;;;;7.90;6.70;;;16.30;1.00;;;;;;4979593;28;20573;-79
2023/09/07 03:28:14;;;;;;;7.47;6.78;;;16.30;1.00;;;;;;4979387;28;20195;-78
2023/09/07 03:30:40;;;;;;;7.80;7.10;;;16.30;1.00;;;;;;4961580;28;20181;-79
2023/09/07 03:33:06;;;;;;;7.40;6.70;;;16.30;1.00;;;;;;4961304;28;20212;-80
2023/09/07 03:35:32;;;;;;;7.50;6.70;;;16.20;1.00;;;;;;4962219;28;20189;-79
2023/09/07 03:37:58;;;;;;;8.25;7.45;;;16.20;1.00;;;;;;4980033;28;20704;-79
2023/09/07 03:40:23;;;;;;;8.40;7.70;;;16.20;1.00;;;;;;4979175;28;20417;-78
2023/09/07 03:42:49;;;;;;;8.07;6.97;;;16.20;1.00;;;;;;4962331;28;20296;-79
2023/09/07 03:45:15;;;;;;;7.95;7.25;;;16.20;16.80;;;;;;4979022;28;20211;-80
2023/09/07 03:47:41;;;;;;;8.43;7.60;;;16.20;1.00;;;;;;4979331;28;20185;-78
2023/09/07 03:50:07;;;;;;;8.75;7.95;;;16.10;1.00;;;;;;4979645;28;20653;-80
2023/09/07 03:52:33;;;;;;;7.60;6.90;;;16.00;37.90;;;;;;4978898;28;20201;-80
2023/09/07 03:55:00;;;;;;;8.63;7.70;;;16.00;99.90;;;;;;4978937;28;20185;-78
2023/09/07 03:57:26;;;;;;;7.90;7.20;;;16.10;99.90;;;;;;4960801;28;20414;-80
2023/09/07 03:59:52;;;;;;;7.93;7.22;;;16.10;54.60;;;;;;4961639;28;20181;-80
2023/09/07 04:02:17;;;;;;;8.57;7.70;;;16.10;1.00;;;;;;4978717;28;20212;-79
2023/09/07 04:04:44;;;;;;;9.25;8.15;;;16.00;1.00;;;;;;4961253;28;20224;-78
2023/09/07 04:07:09;;;;;;;9.43;8.40;;;16.00;1.00;;;;;;4960980;28;20185;-77
2023/09/07 04:09:35;;;;;;;8.35;7.65;;;15.90;1.00;;;;;;4961485;28;20177;-79
2023/09/07 04:12:00;;;;;;;9.25;8.35;;;16.00;1.00;;;;;;4960605;28;20188;-79
2023/09/07 04:14:28;;;;;;;8.27;7.53;;;16.00;1.00;;;;;;4978425;28;20211;-78
2023/09/07 04:16:53;;;;;;;9.10;8.27;;;16.00;3.20;;;;;;4978506;28;20183;-80
2023/09/07 04:19:19;;;;;;;7.80;7.10;;;16.00;25.70;;;;;;4978190;28;20268;-79
2023/09/07 04:21:44;;;;;;;9.35;8.45;;;16.00;36.60;;;;;;4977821;28;20736;-78
2023/09/07 04:24:10;;;;;;;8.80;8.00;;;15.90;1.00;;;;;;4959783;28;20227;-78
2023/09/07 04:26:37;;;;;;;9.40;8.02;;;15.90;23.30;;;;;;4978116;28;20181;-80
2023/09/07 04:29:03;;;;;;;8.75;7.88;;;16.00;12.80;;;;;;4977958;28;20188;-77
2023/09/07 04:31:29;;;;;;;8.52;7.72;;;15.90;1.00;;;;;;4977948;28;20181;-80
2023/09/07 04:33:55;;;;;;;8.90;8.00;;;15.90;1.00;;;;;;4960313;28;20204;-79
2023/09/07 04:36:20;;;;;;;8.50;7.70;;;15.90;1.00;;;;;;4959709;28;20274;-78
2023/09/07 04:38:46;;;;;;;8.27;7.47;;;16.00;46.70;;;;;;4959994;28;20249;-79
2023/09/07 04:41:13;;;;;;;8.68;7.95;;;15.90;40.50;;;;;;4978326;28;20623;-77
2023/09/07 04:43:40;;;;;;;8.90;8.00;;;15.90;40.30;;;;;;4978127;28;20193;-78
2023/09/07 04:46:06;;;;;;;8.75;7.78;;;16.10;57.30;;;;;;4977908;28;20205;-80
2023/09/07 04:48:34;;;;;;;9.27;8.48;;;15.80;1.00;;;;;;4977863;28;20177;-79
2023/09/07 04:51:04;;;;;;;9.15;8.27;;;15.90;14.50;;;;;;4961232;28;20255;-77
2023/09/07 04:53:32;;;;;;;9.10;8.30;;;15.90;10.40;;;;;;4977172;28;20576;-78
2023/09/07 04:55:59;;;;;;;12.20;9.73;;;15.80;18.90;;;;;;4975823;28;20192;-80
2023/09/07 04:58:24;;;;;;;10.48;9.13;;;15.90;1.00;;;;;;4977528;28;20197;-80
2023/09/07 05:00:50;;;;;;;9.82;8.80;;;15.80;1.00;;;;;;4978128;28;20256;-79
2023/09/07 05:03:16;;;;;;;10.05;8.98;;;15.90;1.00;;;;;;4977766;28;20232;-78
2023/09/07 05:05:42;;;;;;;16.02;8.70;;;15.90;1.00;;;;;;4977380;28;20791;-79
2023/09/07 05:08:07;;;;;;;10.68;9.13;;;15.90;1.00;;;;;;4977566;28;20188;-81
2023/09/07 05:10:34;;;;;;;9.93;8.95;;;15.90;1.00;;;;;;4977926;28;20239;-78
2023/09/07 05:13:00;;;;;;;10.20;9.20;;;16.10;1.00;;;;;;4976390;28;20204;-80
2023/09/07 05:15:26;;;;;;;9.18;8.00;;;16.00;1.00;;;;;;4978165;28;20185;-80
2023/09/07 05:17:52;;;;;;;9.50;8.65;;;16.00;1.00;;;;;;4978236;28;20184;-80
2023/09/07 05:20:17;;;;;;;9.07;8.15;;;16.00;1.00;;;;;;4977509;28;21172;-80
2023/09/07 05:22:43;;;;;;;9.63;8.73;;;16.30;1.00;;;;;;4976957;28;20224;-80
2023/09/07 05:25:09;;;;;;;9.70;8.80;;;16.10;1.00;;;;;;4959476;28;20929;-79
2023/09/07 05:27:35;;;;;;;9.15;8.25;;;16.10;1.00;;;;;;4977290;28;20272;-80
2023/09/07 05:30:02;;;;;;;13.77;8.75;;;16.10;1.00;;;;;;4977061;28;20240;-78
2023/09/07 05:32:27;;;;;;;9.45;8.55;;;16.30;1.00;;;;;;4976188;28;20264;-79
2023/09/07 05:34:53;;;;;;;11.35;8.25;;;16.10;1.00;;;;;;4976675;28;20224;-78
2023/09/07 05:37:18;;;;;;;8.73;7.82;;;16.20;1.00;;;;;;4957956;28;20193;-80
2023/09/07 05:39:44;;;;;;;8.93;8.13;;;16.20;1.00;;;;;;4974653;28;20668;-78
2023/09/07 05:42:10;;;;;;;8.75;7.95;;;16.00;1.00;;;;;;4971917;28;20735;-78
2023/09/07 05:44:35;;;;;;;8.82;8.02;;;16.20;1.00;;;;;;4970030;28;20212;-78
2023/09/07 05:47:02;;;;;;;9.90;8.55;;;16.20;1.00;;;;;;4971904;28;20189;-81
2023/09/07 05:49:27;;;;;;;9.02;8.23;;;16.20;1.00;;;;;;4976984;28;20535;-81
2023/09/07 05:51:53;;;;;;;9.55;8.13;;;16.30;1.00;;;;;;4976687;28;20177;-78
2023/09/07 05:54:19;;;;;;;8.27;7.50;;;16.20;1.00;;;;;;4959411;28;20276;-79
2023/09/07 05:56:44;;;;;;;9.43;8.45;;;16.40;1.00;;;;;;4976177;28;20198;-78
2023/09/07 05:59:10;;;;;;;8.05;7.35;;;16.40;1.00;;;;;;4959667;28;20249;-79
2023/09/07 06:01:36;;;;;;;8.57;7.82;;;16.50;1.00;;;;;;4975964;28;20239;-80
2023/09/07 06:04:02;;;;;;;8.00;7.30;;;16.40;1.00;;;;;;4976209;28;20252;-80
2023/09/07 06:06:28;;;;;;;8.82;8.02;;;16.50;1.00;;;;;;4976505;28;20213;-80
2023/09/07 06:08:53;;;;;;;8.20;7.40;;;16.60;1.00;;;;;;4965826;28;20196;-80
2023/09/07 06:11:19;;;;;;;8.63;7.78;;;16.50;1.00;;;;;;4962801;28;20189;-80
2023/09/07 06:13:46;;;;;;;8.10;7.30;;;16.60;1.00;;;;;;4979793;28;20628;-78
2023/09/07 06:16:12;;;;;;;8.60;7.85;;;16.60;1.00;;;;;;4962849;28;20181;-78
2023/09/07 06:18:37;;;;;;;8.25;7.45;;;16.60;1.00;;;;;;4979568;28;20192;-79
2023/09/07 06:21:05;;;;;;;8.93;8.05;;;16.70;1.00;;;;;;4980215;28;20200;-79
2023/09/07 06:23:31;;;;;;;8.32;7.57;;;16.70;64.80;;;;;;4979060;28;20248;-78
2023/09/07 06:25:57;;;;;;;8.90;8.07;;;16.70;2.70;;;;;;4960028;28;20320;-77
2023/09/07 06:28:22;;;;;;;11.60;10.20;;;16.70;99.90;;;;;;4979786;28;20177;-77
2023/09/07 06:30:48;;;;;;;9.52;8.57;;;16.80;99.90;;;;;;4979227;28;20185;-79
2023/09/07 06:33:13;;;;;;;10.52;9.52;;;16.80;1.00;;;;;;4978216;28;20208;-77
2023/09/07 06:35:39;;;;;;;9.60;8.70;;;16.90;99.90;;;;;;4979923;28;20177;-80
2023/09/07 06:38:05;;;;;;;10.88;9.75;;;16.90;99.90;;;;;;4979609;28;20328;-78
2023/09/07 06:40:30;;;;;;;9.20;8.27;;;17.00;99.90;;;;;;4979619;28;20582;-78
2023/09/07 06:42:56;;;;;;;10.43;9.43;;;17.00;4.80;;;;;;4979230;28;20227;-78
2023/09/07 06:45:23;;;;;;;10.80;9.43;;;17.20;99.90;;;;;;4961598;28;20196;-79
2023/09/07 06:47:52;;;;;;;10.50;9.50;;;17.40;99.90;;;;;;4979582;28;20261;-80
2023/09/07 06:50:18;;;;;;;10.65;9.65;;;17.40;99.90;;;;;;4979933;28;20250;-79
2023/09/07 06:52:43;;;;;;;10.82;9.35;;;17.60;99.90;;;;;;4978878;28;20247;-81
2023/09/07 06:55:09;;;;;;;9.52;8.68;;;18.00;1.00;;;;;;4978935;28;20239;-81
2023/09/07 06:57:35;;;;;;;8.95;8.15;;;18.70;99.90;;;;;;4978669;28;20260;-79
2023/09/07 07:00:05;;;;;;;9.43;7.60;;;19.10;26.50;;;;;;4977819;28;20231;-80
2023/09/07 07:02:31;;;;;;;8.75;7.90;;;19.20;1.00;;;;;;4977188;28;20204;-78
2023/09/07 07:04:56;;;;;;;8.65;7.78;;;19.10;13.20;;;;;;4960302;28;20296;-79
2023/09/07 07:07:22;;;;;;;8.38;7.57;;;19.00;11.90;;;;;;4977257;28;20668;-78
2023/09/07 07:09:47;;;;;;;9.88;7.55;;;19.00;99.90;;;;;;4977586;28;20184;-79
2023/09/07 07:12:13;;;;;;;7.40;6.70;;;19.10;52.50;;;;;;4959204;28;20268;-79
2023/09/07 07:14:39;;;;;;;8.52;7.60;;;19.30;1.00;;;;;;4977451;28;20185;-79
2023/09/07 07:17:04;;;;;;;9.07;7.95;;;19.30;1.00;;;;;;4959371;28;20208;-77
2023/09/07 07:19:31;;;;;;;8.73;7.53;;;19.50;1.00;;;;;;4958711;28;20533;-78
2023/09/07 07:21:56;;;;;;;8.85;6.82;;;19.70;1.00;;;;;;4976302;28;20218;-78
2023/09/07 07:24:22;;;;;;;7.97;7.28;;;19.90;1.00;;;;;;4959193;28;20586;-79
2023/09/07 07:26:48;;;;;;;8.40;6.95;;;20.10;1.00;;;;;;4955322;28;20181;-80
2023/09/07 07:29:13;;;;;;;20.65;7.70;;;20.20;1.00;;;;;;4958861;28;20181;-80
2023/09/07 07:31:39;;;;;;;16.52;7.88;;;20.30;1.00;;;;;;4974648;28;20220;-78
2023/09/07 07:34:05;;;;;;;13.07;6.70;;;20.30;1.00;;;;;;4959476;28;20215;-80
2023/09/07 07:36:30;;;;;;;14.13;7.40;;;20.40;99.90;;;;;;4958832;28;20223;-79
2023/09/07 07:38:56;;;;;;;15.35;7.40;;;20.60;99.90;;;;;;4976159;28;20188;-79
2023/09/07 07:41:22;;;;;;;11.10;6.78;;;20.70;99.90;;;;;;4976338;28;20236;-78
2023/09/07 07:43:47;;;;;;;15.90;7.40;;;20.80;99.90;;;;;;4958295;28;20279;-80
2023/09/07 07:46:15;;;;;;;12.38;7.03;;;20.90;99.90;;;;;;4976675;28;20700;-78
2023/09/07 07:48:41;;;;;;;12.93;6.97;;;20.90;99.90;;;;;;4976515;28;20177;-80
2023/09/07 07:51:08;;;;;;;7.47;6.78;;;21.10;99.90;;;;;;4958450;28;20305;-80
2023/09/07 07:53:34;;;;;;;9.43;7.38;;;21.10;99.90;;;;;;4958478;28;20201;-80
2023/09/07 07:56:00;;;;;;;10.23;7.78;;;20.90;99.90;;;;;;4975957;28;20201;-79
2023/09/07 07:58:26;;;;;;;9.07;7.63;;;20.90;99.90;;;;;;4976081;28;20185;-80
2023/09/07 08:00:52;;;;;;;10.68;7.90;;;20.80;99.90;;;;;;4975981;28;20192;-77
2023/09/07 08:03:17;;;;;;;8.65;7.30;;;20.80;99.90;;;;;;4975478;28;20201;-77
2023/09/07 08:05:43;;;;;;;10.48;8.30;;;20.80;99.90;;;;;;4976075;28;20570;-80
2023/09/07 08:08:09;;;;;;;8.07;7.35;;;20.90;99.90;;;;;;4976124;28;20176;-80
2023/09/07 08:10:41;;;;;;;9.82;8.18;;;21.10;99.90;;;;;;4957922;28;20549;-80
2023/09/07 08:13:07;;;;;;;8.60;7.80;;;21.10;99.90;;;;;;4974695;28;20244;-77
2023/09/07 08:15:33;;;;;;;8.40;7.47;;;21.20;99.90;;;;;;4957676;28;20210;-78
2023/09/07 08:17:59;;;;;;;8.10;7.38;;;21.30;99.90;;;;;;4974185;28;20196;-78
2023/09/07 08:20:26;;;;;;;8.75;7.65;;;21.50;99.90;;;;;;4974709;28;20192;-77
2023/09/07 08:22:52;;;;;;;8.82;7.90;;;21.40;99.90;;;;;;4973876;28;20305;-78
2023/09/07 08:25:18;;;;;;;8.10;7.40;;;21.50;99.90;;;;;;4973787;28;20201;-79
2023/09/07 08:27:45;;;;;;;9.05;6.88;;;21.70;99.90;;;;;;4974542;28;20530;-78
2023/09/07 08:30:17;;;;;;;8.30;6.95;;;21.70;99.90;;;;;;4957034;28;20180;-79
2023/09/07 08:32:43;;;;;;;8.32;7.50;;;21.80;99.90;;;;;;4972913;28;20231;-77
2023/09/07 08:35:12;;;;;;;7.95;7.15;;;21.90;83.50;;;;;;4956215;28;20199;-77
2023/09/07 08:37:38;;;;;;;9.35;7.30;;;22.20;99.90;;;;;;4973707;28;20181;-78
2023/09/07 08:40:07;;;;;;;10.30;7.38;;;22.10;99.90;;;;;;4955733;28;20184;-79
2023/09/07 08:42:36;;;;;;;8.13;6.40;;;22.30;99.90;;;;;;4972646;28;20582;-78
2023/09/07 08:45:06;;;;;;;7.88;6.75;;;22.50;99.90;;;;;;4972466;28;20570;-78
2023/09/07 08:47:34;;;;;;;7.63;6.90;;;22.70;99.90;;;;;;4972249;28;20264;-78
2023/09/07 08:50:00;;;;;;;9.48;6.70;;;22.80;99.90;;;;;;4971731;28;20847;-78
2023/09/07 08:52:26;;;;;;;6.97;6.38;;;22.90;99.90;;;;;;4971424;28;20197;-78
2023/09/07 08:54:53;;;;;;;7.70;6.90;;;23.00;99.90;;;;;;4971698;28;20244;-79
2023/09/07 08:57:20;;;;;;;9.50;6.72;;;23.20;99.90;;;;;;4953948;28;20195;-78
2023/09/07 08:59:45;;;;;;;7.30;6.60;;;23.10;99.90;;;;;;4970907;28;20740;-79
2023/09/07 09:02:11;;;;;;;8.60;6.80;;;23.30;99.90;;;;;;4970273;28;20276;-79
2023/09/07 09:04:38;;;;;;;8.20;6.45;;;23.30;99.50;;;;;;4955660;28;20216;-79
2023/09/07 09:07:04;;;;;;;7.68;6.53;;;23.30;94.00;;;;;;4956064;28;20195;-79
2023/09/07 09:09:30;;;;;;;7.47;6.72;;;23.30;90.40;;;;;;4973431;28;20189;-79
2023/09/07 09:12:07;;;;;;;8.93;6.90;;;23.40;90.60;;;;;;4972979;28;20396;-78
2023/09/07 09:14:33;;;;;;;7.10;5.80;;;23.50;67.70;;;;;;4972768;28;20184;-78
2023/09/07 09:16:58;;;;;;;9.20;5.90;;;23.80;13.70;;;;;;4955713;28;20336;-79
2023/09/07 09:19:32;;;;;;;8.20;6.10;;;23.90;12.70;;;;;;4955153;28;20189;-79
2023/09/07 09:21:58;;;;;;;8.18;6.38;;;24.00;6.50;;;;;;4972609;28;20188;-78
2023/09/07 09:24:23;;;;;;;7.68;6.47;;;24.10;1.00;;;;;;4972960;28;20224;-78
2023/09/07 09:26:49;;;;;;;6.22;5.68;;;24.10;1.00;;;;;;4973575;28;20722;-79
2023/09/07 09:29:15;;;;;;;5.55;5.15;;;24.10;1.00;;;;;;4973790;28;20242;-80
2023/09/07 09:31:41;;;;;;;7.40;5.45;;;24.10;1.00;;;;;;4973758;28;20200;-80
2023/09/07 09:34:08;;;;;;;9.05;5.97;;;24.20;1.00;;;;;;4956842;28;20301;-80
2023/09/07 09:36:35;;;;;;;6.43;5.78;;;24.30;1.00;;;;;;4956886;28;20224;-79
2023/09/07 09:39:00;;;;;;;9.10;5.60;;;24.40;1.00;;;;;;4974140;28;20181;-79
2023/09/07 09:41:27;;;;;;;5.75;5.03;;;24.50;1.00;;;;;;4974029;28;20241;-79
2023/09/07 09:43:55;;;;;;;8.57;5.18;;;24.60;1.00;;;;;;4976740;28;20200;-79
2023/09/07 09:46:22;;;;;;;8.07;5.10;;;24.70;1.00;;;;;;4977929;28;20268;-81
2023/09/07 09:48:49;;;;;;;5.43;4.88;;;24.70;1.00;;;;;;4961418;28;20307;-78
2023/09/07 09:51:15;;;;;;;5.53;5.03;;;24.90;1.00;;;;;;4978564;28;20180;-78
2023/09/07 09:53:42;;;;;;;5.63;4.43;;;24.80;1.00;;;;;;4978555;28;20196;-80
2023/09/07 09:56:08;;;;;;;10.07;4.53;;;25.00;1.00;;;;;;4978279;28;20185;-79
2023/09/07 09:58:34;;;;;;;6.75;4.53;;;25.20;1.00;;;;;;4978902;28;20810;-79
2023/09/07 10:01:05;;;;;;;7.82;4.68;;;25.30;1.00;;;;;;4979274;28;20189;-80
2023/09/07 10:03:36;;;;;;;6.85;4.72;;;25.30;1.00;;;;;;4960720;28;20205;-78
2023/09/07 10:06:12;;;;;;;7.82;4.55;;;25.40;1.00;;;;;;4978508;28;20208;-80
2023/09/07 10:08:37;;;;;;;4.78;4.35;;;25.40;1.00;;;;;;4977307;28;20622;-78
2023/09/07 10:11:09;;;;;;;5.15;4.32;;;25.50;1.00;;;;;;4978022;28;20189;-78
2023/09/07 10:13:35;;;;;;;4.60;4.20;;;25.70;1.00;;;;;;4960971;28;20200;-80
2023/09/07 10:16:08;;;;;;;7.13;4.63;;;25.70;1.00;;;;;;4978963;28;20185;-80
2023/09/07 10:18:35;;;;;;;5.57;3.60;;;25.90;1.00;;;;;;4978490;28;20189;-78
2023/09/07 10:21:02;;;;;;;8.02;4.20;;;25.90;1.00;;;;;;4960368;28;20213;-79
2023/09/07 10:23:43;;;;;;;8.18;4.38;;;26.00;1.00;;;;;;4958071;28;20219;-78
2023/09/07 10:26:14;;;;;;;7.95;4.20;;;26.10;1.00;;;;;;4974962;28;20685;-78
2023/09/07 10:28:40;;;;;;;4.35;3.95;;;26.10;1.00;;;;;;4975057;28;20181;-77
2023/09/07 10:31:13;;;;;;;4.93;4.18;;;26.10;1.00;;;;;;4957983;28;20188;-77
2023/09/07 10:33:38;;;;;;;5.82;4.82;;;26.20;1.00;;;;;;4957306;28;20216;-77
2023/09/07 10:36:05;;;;;;;5.72;4.10;;;26.30;1.00;;;;;;4957704;28;20189;-78
2023/09/07 10:38:35;;;;;;;5.07;4.40;;;26.30;1.00;;;;;;4956804;28;20181;-79
2023/09/07 10:41:04;;;;;;;4.85;4.35;;;26.40;1.00;;;;;;4961936;28;20673;-79
2023/09/07 10:43:31;;;;;;;7.03;4.40;;;26.50;1.00;;;;;;4974950;28;20259;-78
2023/09/07 10:45:57;;;;;;;5.65;4.07;;;26.50;1.00;;;;;;4976012;28;20591;-79
2023/09/07 10:48:29;;;;;;;6.40;4.88;;;26.60;1.00;;;;;;4975445;28;20196;-79
2023/09/07 10:50:56;;;;;;;6.68;4.47;;;26.60;1.00;;;;;;4975643;28;20199;-76
2023/09/07 10:53:30;;;;;;;5.00;4.53;;;26.60;1.00;;;;;;4975215;28;20691;-80
2023/09/07 10:56:03;;;;;;;4.53;4.13;;;26.70;1.00;;;;;;4944758;28;20188;-76
2023/09/07 10:58:32;;;;;;;5.70;4.25;;;26.90;1.00;;;;;;4957466;28;20184;-78
2023/09/07 11:00:58;;;;;;;6.13;4.45;;;27.00;1.00;;;;;;4957850;28;20265;-78
2023/09/07 11:03:28;;;;;;;5.00;4.50;;;27.00;1.00;;;;;;4973248;28;20325;-80
2023/09/07 11:06:13;;;;;;;5.22;4.78;;;27.00;1.00;;;;;;4958611;28;20215;-78
2023/09/07 11:08:39;;;;;;;6.95;4.95;;;27.00;1.00;;;;;;4974210;28;20181;-77
2023/09/07 11:11:05;;;;;;;5.78;3.97;;;27.10;1.00;;;;;;4975102;28;20191;-79
2023/09/07 11:13:31;;;;;;;6.22;4.07;;;27.10;1.00;;;;;;4974881;28;20205;-78
2023/09/07 11:15:58;;;;;;;8.63;4.32;;;27.10;1.00;;;;;;4975037;28;20188;-77
2023/09/07 11:18:24;;;;;;;5.80;3.80;;;26.20;1.00;;;;;;4957921;28;20612;-77
2023/09/07 11:20:51;;;;;;;6.57;4.07;;;27.20;1.00;;;;;;4974236;28;20201;-77
2023/09/07 11:23:18;;;;;;;4.28;3.90;;;27.30;1.00;;;;;;4936783;28;1095450;-79
2023/09/07 11:25:46;;;;;;;6.88;4.18;;;27.40;1.00;;;;;;4974678;28;20216;-77
2023/09/07 11:28:11;;;;;;;6.28;4.05;;;27.40;1.00;;;;;;4974042;28;20181;-78
2023/09/07 11:30:37;;;;;;;4.53;4.10;;;27.30;1.00;;;;;;4974629;28;20188;-78
2023/09/07 11:33:06;;;;;;;4.32;3.92;;;27.40;1.00;;;;;;4956131;28;20201;-77
2023/09/07 11:35:35;;;;;;;7.43;4.13;;;27.30;1.00;;;;;;4958988;28;20325;-77
2023/09/07 11:38:03;;;;;;;4.25;3.95;;;27.50;1.00;;;;;;4957473;28;20192;-77
2023/09/07 11:40:29;;;;;;;4.30;3.90;;;27.60;1.00;;;;;;4975164;28;20269;-77
2023/09/07 11:42:55;;;;;;;4.32;3.97;;;27.60;1.00;;;;;;4957014;28;20208;-78
2023/09/07 11:45:21;;;;;;;4.35;3.97;;;27.60;1.00;;;;;;4974042;28;20215;-77
2023/09/07 11:47:47;;;;;;;5.10;4.00;;;27.70;1.00;;;;;;4974220;28;21103;-77
2023/09/07 11:50:12;;;;;;;4.07;3.72;;;27.70;1.00;;;;;;4957017;28;20275;-77
2023/09/07 11:52:38;;;;;;;5.65;4.35;;;27.70;1.00;;;;;;4973647;28;20339;-77
2023/09/07 11:55:04;;;;;;;4.70;4.13;;;27.60;1.00;;;;;;4974053;28;20200;-77
2023/09/07 11:57:30;;;;;;;4.32;3.90;;;27.70;1.00;;;;;;4973585;28;20217;-77
2023/09/07 11:59:56;;;;;;;4.50;4.07;;;27.70;1.00;;;;;;4972679;28;20189;-78
2023/09/07 12:02:22;;;;;;;4.50;3.65;;;27.70;1.00;;;;;;4973512;28;20231;-78
2023/09/07 12:04:48;;;;;;;6.05;3.78;;;27.80;1.00;;;;;;4976934;28;20264;-78
2023/09/07 12:07:15;;;;;;;6.45;4.20;;;28.00;1.00;;;;;;4974889;28;20652;-78
2023/09/07 12:09:40;;;;;;;4.35;3.92;;;27.90;1.00;;;;;;4976839;28;20192;-78
2023/09/07 12:12:06;;;;;;;5.38;3.90;;;27.90;1.00;;;;;;4959182;28;20184;-78
2023/09/07 12:14:32;;;;;;;4.07;3.67;;;27.90;1.00;;;;;;4976019;28;20184;-79
2023/09/07 12:16:58;;;;;;;6.88;3.40;;;27.90;1.00;;;;;;4975515;28;20571;-79
2023/09/07 12:19:23;;;;;;;5.78;4.03;;;27.90;1.00;;;;;;4975167;28;20239;-80
2023/09/07 12:21:50;;;;;;;5.30;4.05;;;28.00;1.00;;;;;;4974979;28;20826;-79
2023/09/07 12:24:16;;;;;;;4.88;4.38;;;28.00;1.00;;;;;;4974415;28;20370;-80
2023/09/07 12:26:41;;;;;;;5.65;3.78;;;28.00;1.00;;;;;;4975127;28;20264;-80
2023/09/07 12:29:07;;;;;;;4.15;3.72;;;28.00;1.00;;;;;;4957256;28;20181;-78
2023/09/07 12:31:33;;;;;;;8.18;3.80;;;28.10;1.00;;;;;;4975035;28;20177;-78
2023/09/07 12:33:59;;;;;;;5.25;3.42;;;28.10;1.00;;;;;;4975722;28;20791;-79
2023/09/07 12:36:24;;;;;;;7.13;3.85;;;28.10;1.00;;;;;;4975614;28;20562;-79
2023/09/07 12:38:50;;;;;;;4.03;3.70;;;28.10;1.00;;;;;;4957173;28;20188;-78
2023/09/07 12:41:15;;;;;;;4.53;3.63;;;28.10;1.00;;;;;;4975207;28;20209;-79
2023/09/07 12:43:42;;;;;;;4.18;3.47;;;28.20;1.00;;;;;;4957890;28;20205;-78
2023/09/07 12:46:08;;;;;;;4.90;3.92;;;28.60;1.00;;;;;;4974749;28;20212;-80
2023/09/07 12:48:34;;;;;;;4.78;3.80;;;28.30;1.00;;;;;;4975941;28;20579;-78